createdAt,value
2022-10-12T00:00:41.477Z,101774.81
2022-10-12T00:03:08.445Z,101782.19
2022-10-12T00:05:35.215Z,101782.19
2022-10-12T00:08:01.946Z,101788.50
2022-10-12T00:10:28.868Z,101783.50
2022-10-12T00:12:55.801Z,101788.06
2022-10-12T00:15:22.616Z,101783.97
2022-10-12T00:17:49.454Z,101783.06
2022-10-12T00:20:19.341Z,101787.34
2022-10-12T00:22:46.142Z,101779.59
2022-10-12T00:25:15.145Z,101787.13
2022-10-12T00:27:53.840Z,101787.81
2022-10-12T00:30:28.867Z,101778.09
2022-10-12T00:33:02.409Z,101787.59
2022-10-12T00:35:37.555Z,101788.38
2022-10-12T00:38:09.599Z,101788.25
2022-10-12T00:40:39.402Z,101789.16
2022-10-12T00:43:38.928Z,101792.69
2022-10-12T00:46:16.133Z,101794.53
2022-10-12T00:48:52.355Z,101799.88
2022-10-12T00:51:23.020Z,101799.78
2022-10-12T00:54:01.232Z,101789.47
2022-10-12T00:56:45.280Z,101800.69
2022-10-12T00:59:21.479Z,101799.25
2022-10-12T01:02:17.257Z,101790.44
2022-10-12T01:04:45.794Z,101787.75
2022-10-12T01:07:19.132Z,101798.38
2022-10-12T01:09:55.070Z,101788.00
2022-10-12T01:12:29.756Z,101794.56
2022-10-12T01:15:09.679Z,101788.16
2022-10-12T01:17:52.937Z,101794.16
2022-10-12T01:20:54.659Z,101796.06
2022-10-12T01:23:45.714Z,101794.66
2022-10-12T01:26:34.563Z,101800.22
2022-10-12T01:29:23.395Z,101794.97
2022-10-12T01:32:11.093Z,101795.94
2022-10-12T01:34:54.221Z,101796.88
2022-10-12T01:37:51.695Z,101800.44
2022-10-12T01:40:28.371Z,101802.44
2022-10-12T01:43:01.074Z,101798.25
2022-10-12T01:45:28.304Z,101805.19
2022-10-12T01:47:58.145Z,101805.81
2022-10-12T01:50:33.662Z,101803.13
2022-10-12T01:53:17.563Z,101803.06
2022-10-12T01:56:30.018Z,101806.66
2022-10-12T01:59:24.722Z,101810.38
2022-10-12T02:02:00.205Z,101801.63
2022-10-12T02:04:42.675Z,101789.53
2022-10-12T02:07:20.504Z,101794.75
2022-10-12T02:10:04.466Z,101797.44
2022-10-12T02:12:32.418Z,101794.75
2022-10-12T02:15:06.337Z,101791.88
2022-10-12T02:17:40.922Z,101786.00
2022-10-12T02:20:13.657Z,101784.25
2022-10-12T02:22:48.102Z,101785.09
2022-10-12T02:25:22.592Z,101786.91
2022-10-12T02:28:09.216Z,101788.81
2022-10-12T02:30:50.332Z,101783.38
2022-10-12T02:33:48.102Z,101784.19
2022-10-12T02:36:24.159Z,101779.72
2022-10-12T02:39:05.165Z,101782.41
2022-10-12T02:41:38.773Z,101779.81
2022-10-12T02:44:36.346Z,101773.00
2022-10-12T02:47:11.727Z,101772.16
2022-10-12T02:49:41.692Z,101774.06
2022-10-12T02:52:11.646Z,101769.69
2022-10-12T02:54:40.073Z,101773.84
2022-10-12T02:57:06.888Z,101772.06
2022-10-12T02:59:33.827Z,101766.97
2022-10-12T03:02:03.490Z,101767.66
2022-10-12T03:04:30.280Z,101764.84
2022-10-12T03:06:56.936Z,101772.13
2022-10-12T03:09:23.696Z,101777.38
2022-10-12T03:16:44.352Z,101775.84
2022-10-12T03:19:22.629Z,101774.63
2022-10-12T03:21:49.563Z,101771.84
2022-10-12T03:24:16.320Z,101767.47
2022-10-12T03:26:44.315Z,101772.72
2022-10-12T03:29:12.285Z,101771.59
2022-10-12T03:31:40.940Z,101768.03
2022-10-12T03:34:07.711Z,101762.16
2022-10-12T03:36:34.565Z,101758.69
2022-10-12T03:39:10.931Z,101762.50
2022-10-12T03:41:37.803Z,101760.13
2022-10-12T03:44:04.924Z,101766.19
2022-10-12T03:46:34.665Z,101767.78
2022-10-12T03:49:01.378Z,101767.28
2022-10-12T03:51:28.094Z,101769.81
2022-10-12T03:53:54.855Z,101765.59
2022-10-12T03:56:21.802Z,101761.50
2022-10-12T03:58:48.691Z,101770.38
2022-10-12T04:01:15.499Z,101776.66
2022-10-12T04:03:45.031Z,101767.88
2022-10-12T04:06:12.117Z,101782.03
2022-10-12T04:08:40.224Z,101775.09
2022-10-12T04:11:07.282Z,101770.66
2022-10-12T04:13:34.173Z,101779.47
2022-10-12T04:16:10.986Z,101782.13
2022-10-12T04:18:38.033Z,101781.97
2022-10-12T04:21:13.111Z,101782.81
2022-10-12T04:23:40.011Z,101775.00
2022-10-12T04:26:07.137Z,101777.59
2022-10-12T04:28:34.279Z,101779.47
2022-10-12T04:31:01.252Z,101784.66
2022-10-12T04:33:28.344Z,101778.28
2022-10-12T04:35:55.129Z,101780.13
2022-10-12T04:38:21.858Z,101770.94
2022-10-12T04:40:49.202Z,101764.53
2022-10-12T04:43:19.928Z,101770.56
2022-10-12T04:45:54.877Z,101769.53
2022-10-12T04:48:22.944Z,101773.91
2022-10-12T04:50:52.528Z,101774.00
2022-10-12T04:53:23.080Z,101776.75
2022-10-12T04:55:49.866Z,101775.84
2022-10-12T04:58:20.525Z,101781.97
2022-10-12T05:00:49.053Z,101775.84
2022-10-12T05:03:15.846Z,101785.19
2022-10-12T05:05:44.679Z,101781.56
2022-10-12T05:08:12.572Z,101792.13
2022-10-12T05:10:40.531Z,101786.66
2022-10-12T05:13:07.622Z,101795.25
2022-10-12T05:15:34.320Z,101786.66
2022-10-12T05:18:03.911Z,101783.19
2022-10-12T05:20:33.285Z,101778.97
2022-10-12T05:23:00.029Z,101781.50
2022-10-12T05:25:29.569Z,101792.03
2022-10-12T05:27:57.493Z,101775.34
2022-10-12T05:30:24.667Z,101782.31
2022-10-12T05:32:51.757Z,101778.25
2022-10-12T05:35:18.563Z,101780.88
2022-10-12T05:37:45.313Z,101777.19
2022-10-12T05:40:12.296Z,101779.72
2022-10-12T05:42:39.683Z,101778.09
2022-10-12T05:45:07.531Z,101780.28
2022-10-12T05:47:34.376Z,101781.88
2022-10-12T05:50:01.196Z,101767.72
2022-10-12T05:52:27.983Z,101771.00
2022-10-12T05:54:54.748Z,101784.00
2022-10-12T05:57:21.697Z,101779.50
2022-10-12T05:59:48.409Z,101791.03
2022-10-12T06:02:17.190Z,101779.47
2022-10-12T06:04:44.080Z,101786.25
2022-10-12T06:07:10.917Z,101790.34
2022-10-12T06:09:39.916Z,101781.97
2022-10-12T06:12:07.795Z,101791.44
2022-10-12T06:14:34.777Z,101797.16
2022-10-12T06:17:01.537Z,101804.88
2022-10-12T06:19:28.504Z,101803.84
2022-10-12T06:21:55.549Z,101810.78
2022-10-12T06:24:23.822Z,101805.53
2022-10-12T06:26:53.040Z,101802.59
2022-10-12T06:29:23.390Z,101813.97
2022-10-12T06:31:55.849Z,101812.09
2022-10-12T06:34:22.833Z,101816.25
2022-10-12T06:36:50.057Z,101813.47
2022-10-12T06:39:17.085Z,101811.44
2022-10-12T06:41:44.020Z,101822.44
2022-10-12T06:44:11.091Z,101819.50
2022-10-12T06:46:38.151Z,101815.63
2022-10-12T06:49:05.188Z,101824.94
2022-10-12T06:51:32.005Z,101820.38
2022-10-12T06:53:58.819Z,101826.28
2022-10-12T06:56:25.651Z,101825.22
2022-10-12T06:58:58.519Z,101832.09
2022-10-12T07:01:25.597Z,101821.16
2022-10-12T07:03:53.501Z,101828.31
2022-10-12T07:06:21.864Z,101819.09
2022-10-12T07:08:50.329Z,101820.69
2022-10-12T07:11:17.022Z,101820.56
2022-10-12T07:13:43.767Z,101821.22
2022-10-12T07:16:10.523Z,101827.19
2022-10-12T07:18:37.440Z,101823.38
2022-10-12T07:21:04.236Z,101824.09
2022-10-12T07:23:32.276Z,101824.66
2022-10-12T07:25:59.316Z,101822.63
2022-10-12T07:28:26.500Z,101828.50
2022-10-12T07:30:53.298Z,101827.41
2022-10-12T07:33:20.039Z,101835.84
2022-10-12T07:36:12.803Z,101832.94
2022-10-12T07:38:40.449Z,101834.25
2022-10-12T07:41:07.683Z,101831.34
2022-10-12T07:43:34.457Z,101832.03
2022-10-12T07:46:01.179Z,101829.16
2022-10-12T07:48:27.895Z,101824.63
2022-10-12T07:50:54.632Z,101827.91
2022-10-12T07:53:21.916Z,101824.13
2022-10-12T07:55:48.602Z,101827.25
2022-10-12T07:58:15.456Z,101820.13
2022-10-12T08:00:42.305Z,101830.47
2022-10-12T08:03:09.036Z,101828.31
2022-10-12T08:05:38.120Z,101824.66
2022-10-12T08:08:05.092Z,101829.50
2022-10-12T08:10:34.334Z,101825.56
2022-10-12T08:13:01.160Z,101818.31
2022-10-12T08:15:28.013Z,101822.31
2022-10-12T08:17:54.705Z,101828.22
2022-10-12T08:20:21.426Z,101821.72
2022-10-12T08:22:48.135Z,101831.22
2022-10-12T08:25:15.191Z,101831.88
2022-10-12T08:27:49.037Z,101826.38
2022-10-12T08:30:16.020Z,101825.25
2022-10-12T08:32:42.795Z,101826.00
2022-10-12T08:35:09.655Z,101834.47
2022-10-12T08:37:36.488Z,101819.97
2022-10-12T08:40:04.114Z,101822.38
2022-10-12T08:42:39.980Z,101817.41
2022-10-12T08:45:34.879Z,101826.78
2022-10-12T08:48:09.377Z,101820.47
2022-10-12T08:50:41.038Z,101817.44
2022-10-12T08:53:23.044Z,101815.44
2022-10-12T08:55:49.889Z,101812.41
2022-10-12T08:58:18.588Z,101818.25
2022-10-12T09:00:48.443Z,101813.50
2022-10-12T09:03:38.827Z,101818.50
2022-10-12T09:06:17.422Z,101806.81
2022-10-12T09:08:53.584Z,101809.06
2022-10-12T09:11:23.349Z,101807.88
2022-10-12T09:14:01.280Z,101810.53
2022-10-12T09:16:31.269Z,101810.06
2022-10-12T09:19:13.224Z,101807.38
2022-10-12T09:21:40.394Z,101800.88
2022-10-12T09:24:15.218Z,101800.50
2022-10-12T09:26:42.573Z,101799.88
2022-10-12T09:29:26.231Z,101801.44
2022-10-12T09:32:06.137Z,101800.13
2022-10-12T09:34:32.939Z,101798.81
2022-10-12T09:37:02.723Z,101801.22
2022-10-12T09:39:31.880Z,101801.66
2022-10-12T09:41:58.596Z,101791.50
2022-10-12T09:44:32.733Z,101797.13
2022-10-12T09:47:03.725Z,101784.22
2022-10-12T09:49:47.724Z,101791.22
2022-10-12T09:52:15.525Z,101792.28
2022-10-12T09:54:47.741Z,101784.84
2022-10-12T09:57:26.385Z,101792.41
2022-10-12T09:59:53.312Z,101792.78
2022-10-12T10:02:22.191Z,101795.59
2022-10-12T10:04:50.263Z,101786.41
2022-10-12T10:07:22.996Z,101783.47
2022-10-12T10:10:13.519Z,101791.16
2022-10-12T10:12:50.475Z,101782.66
2022-10-12T10:15:21.997Z,101782.22
2022-10-12T10:17:54.280Z,101780.22
2022-10-12T10:20:43.969Z,101777.72
2022-10-12T10:23:24.286Z,101777.78
2022-10-12T10:25:59.843Z,101775.53
2022-10-12T10:28:32.441Z,101768.78
2022-10-12T10:31:07.541Z,101763.94
2022-10-12T10:33:35.503Z,101766.72
2022-10-12T10:36:19.748Z,101769.69
2022-10-12T10:39:06.637Z,101772.69
2022-10-12T10:41:37.650Z,101771.84
2022-10-12T10:44:22.580Z,101780.53
2022-10-12T10:46:49.571Z,101777.28
2022-10-12T10:49:49.431Z,101763.06
2022-10-12T10:52:27.180Z,101772.06
2022-10-12T10:55:19.269Z,101760.22
2022-10-12T10:57:56.885Z,101757.84
2022-10-12T11:00:38.499Z,101749.22
2022-10-12T11:03:16.575Z,101752.06
2022-10-12T11:05:50.196Z,101748.50
2022-10-12T11:08:26.482Z,101746.97
2022-10-12T11:11:00.572Z,101749.81
2022-10-12T11:14:18.688Z,101748.97
2022-10-12T11:16:50.825Z,101736.38
2022-10-12T11:20:02.311Z,101730.97
2022-10-12T11:22:51.848Z,101726.31
2022-10-12T11:25:26.143Z,101726.09
2022-10-12T11:27:56.390Z,101722.03
2022-10-12T11:30:29.650Z,101726.00
2022-10-12T11:33:05.786Z,101725.03
2022-10-12T11:35:36.039Z,101715.34
2022-10-12T11:38:12.846Z,101715.94
2022-10-12T11:41:05.971Z,101713.41
2022-10-12T11:44:15.983Z,101706.66
2022-10-12T11:46:53.933Z,101708.19
2022-10-12T11:49:31.095Z,101705.59
2022-10-12T11:52:00.612Z,101696.53
2022-10-12T11:54:51.651Z,101698.31
2022-10-12T11:57:24.755Z,101693.94
2022-10-12T12:00:05.560Z,101690.28
2022-10-12T12:02:41.865Z,101689.97
2022-10-12T12:05:16.579Z,101689.03
2022-10-12T12:07:49.762Z,101692.75
2022-10-12T12:10:25.809Z,101685.47
2022-10-12T12:13:18.424Z,101674.41
2022-10-12T12:15:47.988Z,101681.16
2022-10-12T12:18:22.019Z,101678.94
2022-10-12T12:21:08.007Z,101680.16
2022-10-12T12:23:42.709Z,101669.47
2022-10-12T12:26:14.653Z,101671.56
2022-10-12T12:28:46.545Z,101670.50
2022-10-12T12:31:25.667Z,101670.75
2022-10-12T12:34:04.609Z,101665.16
2022-10-12T12:36:36.981Z,101666.28
2022-10-12T12:39:05.841Z,101660.34
2022-10-12T12:42:01.298Z,101660.09
2022-10-12T12:44:43.032Z,101662.41
2022-10-12T12:50:00.696Z,101659.34
2022-10-12T12:52:35.834Z,101657.88
2022-10-12T12:55:15.198Z,101656.13
2022-10-12T12:57:48.902Z,101649.06
2022-10-12T13:00:23.949Z,101649.91
2022-10-12T13:03:21.829Z,101643.03
2022-10-12T13:06:19.730Z,101647.38
2022-10-12T13:08:56.547Z,101650.47
2022-10-12T13:11:58.387Z,101645.16
2022-10-12T13:14:41.809Z,101642.56
2022-10-12T13:17:32.245Z,101634.56
2022-10-12T13:19:59.275Z,101640.22
2022-10-12T13:22:33.032Z,101630.47
2022-10-12T13:25:03.925Z,101640.94
2022-10-12T13:27:35.862Z,101628.50
2022-10-12T13:30:13.905Z,101628.81
2022-10-12T13:32:59.410Z,101631.66
2022-10-12T13:35:32.554Z,101618.44
2022-10-12T13:38:05.588Z,101620.84
2022-10-12T13:40:37.279Z,101621.00
2022-10-12T13:43:25.500Z,101621.31
2022-10-12T13:45:52.274Z,101620.44
2022-10-12T13:48:39.845Z,101617.97
2022-10-12T13:51:21.901Z,101623.50
2022-10-12T13:53:48.580Z,101624.31
2022-10-12T13:56:18.631Z,101618.44
2022-10-12T13:58:45.447Z,101612.94
2022-10-12T14:01:12.900Z,101612.78
2022-10-12T14:03:42.510Z,101600.88
2022-10-12T14:06:30.120Z,101600.13
2022-10-12T14:09:10.000Z,101608.06
2022-10-12T14:11:37.409Z,101605.63
2022-10-12T14:14:04.183Z,101600.63
2022-10-12T14:16:30.924Z,101605.22
2022-10-12T14:19:17.603Z,101600.53
2022-10-12T14:21:47.310Z,101600.19
2022-10-12T14:24:18.799Z,101590.84
2022-10-12T14:26:54.248Z,101589.25
2022-10-12T14:29:39.551Z,101594.31
2022-10-12T14:32:29.585Z,101584.16
2022-10-12T14:35:10.940Z,101578.31
2022-10-12T14:37:40.462Z,101578.47
2022-10-12T14:40:27.471Z,101575.81
2022-10-12T14:43:03.525Z,101571.41
2022-10-12T14:45:31.484Z,101571.53
2022-10-12T14:48:00.091Z,101580.34
2022-10-12T14:50:28.805Z,101576.91
2022-10-12T14:52:57.537Z,101569.50
2022-10-12T14:55:27.379Z,101562.63
2022-10-12T14:57:54.131Z,101563.75
2022-10-12T15:00:23.562Z,101563.88
2022-10-12T15:02:50.910Z,101558.91
2022-10-12T15:05:21.464Z,101560.06
2022-10-12T15:07:48.468Z,101556.75
2022-10-12T15:10:16.377Z,101560.97
2022-10-12T15:12:43.891Z,101549.41
2022-10-12T15:15:28.830Z,101556.38
2022-10-12T15:17:58.601Z,101545.31
2022-10-12T15:20:26.584Z,101553.16
2022-10-12T15:22:53.468Z,101536.78
2022-10-12T15:25:26.764Z,101531.63
2022-10-12T15:27:53.436Z,101534.03
2022-10-12T15:30:20.277Z,101531.25
2022-10-12T15:32:47.927Z,101543.03
2022-10-12T15:35:18.991Z,101539.19
2022-10-12T15:37:46.069Z,101541.31
2022-10-12T15:40:13.257Z,101545.88
2022-10-12T15:42:42.550Z,101549.56
2022-10-12T15:45:16.814Z,101541.97
2022-10-12T15:47:45.179Z,101548.84
2022-10-12T15:50:26.602Z,101546.56
2022-10-12T15:52:54.370Z,101545.31
2022-10-12T15:55:23.833Z,101541.59
2022-10-12T15:57:51.779Z,101542.66
2022-10-12T16:00:20.786Z,101541.84
2022-10-12T16:02:47.687Z,101541.38
2022-10-12T16:05:26.504Z,101542.81
2022-10-12T16:07:54.015Z,101531.03
2022-10-12T16:10:23.547Z,101533.75
2022-10-12T16:12:51.906Z,101541.00
2022-10-12T16:15:22.792Z,101533.41
2022-10-12T16:17:50.347Z,101535.22
2022-10-12T16:20:17.392Z,101532.88
2022-10-12T16:22:44.659Z,101527.91
2022-10-12T16:25:13.076Z,101537.41
2022-10-12T16:27:39.896Z,101530.34
2022-10-12T16:30:07.835Z,101533.22
2022-10-12T16:32:34.750Z,101533.97
2022-10-12T16:35:01.718Z,101532.78
2022-10-12T16:37:28.706Z,101542.63
2022-10-12T16:39:55.615Z,101535.19
2022-10-12T16:42:22.832Z,101528.66
2022-10-12T16:44:49.864Z,101533.53
2022-10-12T16:47:16.674Z,101527.72
2022-10-12T16:49:43.623Z,101523.63
2022-10-12T16:52:10.353Z,101531.19
2022-10-12T16:54:37.056Z,101523.66
2022-10-12T16:57:04.024Z,101529.28
2022-10-12T16:59:30.706Z,101525.00
2022-10-12T17:01:57.665Z,101532.34
2022-10-12T17:04:24.370Z,101531.72
2022-10-12T17:06:51.252Z,101530.34
2022-10-12T17:09:17.981Z,101532.66
2022-10-12T17:11:44.672Z,101527.78
2022-10-12T17:14:13.998Z,101526.72
2022-10-12T17:16:50.055Z,101525.69
2022-10-12T17:19:24.544Z,101522.63
2022-10-12T17:21:53.921Z,101529.69
2022-10-12T17:24:21.776Z,101528.81
2022-10-12T17:26:48.435Z,101525.56
2022-10-12T17:29:18.314Z,101527.66
2022-10-12T17:31:45.894Z,101530.06
2022-10-12T17:34:24.473Z,101525.28
2022-10-12T17:36:52.503Z,101528.31
2022-10-12T17:39:19.657Z,101531.91
2022-10-12T17:41:46.627Z,101539.50
2022-10-12T17:44:13.724Z,101527.72
2022-10-12T17:46:42.078Z,101527.16
2022-10-12T17:49:11.482Z,101530.75
2022-10-12T17:51:38.198Z,101528.53
2022-10-12T17:54:05.130Z,101532.50
2022-10-12T17:56:31.942Z,101532.72
2022-10-12T17:59:00.778Z,101530.25
2022-10-12T18:01:28.769Z,101520.72
2022-10-12T18:03:55.815Z,101525.75
2022-10-12T18:06:23.913Z,101529.13
2022-10-12T18:12:54.442Z,101521.09
2022-10-12T18:15:36.612Z,101512.09
2022-10-12T18:18:18.723Z,101516.31
2022-10-12T19:21:23.108Z,101481.66
2022-10-12T19:36:50.676Z,101465.72
2022-10-12T19:43:53.597Z,101479.47
2022-10-12T19:51:45.229Z,101473.16
2022-10-12T20:02:22.585Z,101466.03
2022-10-12T20:09:30.089Z,101455.63
2022-10-12T20:12:53.251Z,101463.03
2022-10-12T20:19:22.158Z,101456.16
2022-10-12T20:39:28.353Z,101438.81
2022-10-12T20:46:14.069Z,101451.00
2022-10-12T20:56:16.086Z,101429.28
2022-10-12T20:59:12.393Z,101434.13
2022-10-12T21:01:48.520Z,101430.38
2022-10-12T21:04:40.519Z,101423.72
2022-10-12T21:07:23.066Z,101420.22
2022-10-12T21:10:09.990Z,101422.72
2022-10-12T21:13:02.307Z,101418.50
2022-10-12T21:15:54.432Z,101415.28
2022-10-12T21:18:55.122Z,101423.81
2022-10-12T21:21:33.490Z,101411.06
2022-10-12T21:24:24.350Z,101407.09
2022-10-12T21:45:30.804Z,101412.44
2022-10-12T21:52:50.721Z,101410.81
2022-10-12T21:59:35.929Z,101419.47
2022-10-12T22:03:14.963Z,101418.47
2022-10-12T22:06:28.507Z,101418.75
2022-10-12T22:10:13.652Z,101420.66
2022-10-12T22:12:58.957Z,101418.00
2022-10-12T22:15:53.000Z,101410.47
2022-10-12T22:18:55.030Z,101406.94
2022-10-12T22:21:41.899Z,101414.81
2022-10-12T22:24:13.325Z,101409.91
2022-10-12T22:27:16.080Z,101399.41
2022-10-12T22:33:23.098Z,101392.25
2022-10-12T22:40:14.267Z,101394.34
2022-10-12T22:46:42.222Z,101391.22
2022-10-12T22:49:50.305Z,101380.56
2022-10-12T22:53:07.344Z,101379.91
2022-10-12T22:56:03.126Z,101380.56
2022-10-12T22:58:51.208Z,101382.63
2022-10-12T23:01:56.922Z,101374.72
2022-10-12T23:11:10.445Z,101365.78
2022-10-12T23:13:47.342Z,101367.56
2022-10-12T23:16:58.637Z,101368.06
2022-10-12T23:20:35.715Z,101366.94
2022-10-12T23:23:41.566Z,101366.44
2022-10-12T23:26:59.587Z,101358.25
2022-10-12T23:30:26.411Z,101359.00
2022-10-12T23:33:39.385Z,101346.72
2022-10-12T23:47:41.951Z,101350.50
2022-10-12T23:51:06.834Z,101344.63
2022-10-12T23:54:13.297Z,101349.16
2022-10-12T23:57:45.175Z,101355.88
